sensor_id;sensor_type;location;lat;lon;timestamp;P1;durP1;ratioP1;P2;durP2;ratioP2
37609;SDS011;23457;51.966;8.230;2023-06-24T00:02:25;8.00;;;6.85;;
37609;SDS011;23457;51.966;8.230;2023-06-24T00:04:52;8.48;;;7.60;;
37609;SDS011;23457;51.966;8.230;2023-06-24T00:07:18;9.68;;;6.90;;
37609;SDS011;23457;51.966;8.230;2023-06-24T00:09:48;9.10;;;6.88;;
37609;SDS011;23457;51.966;8.230;2023-06-24T00:12:15;9.57;;;7.63;;
37609;SDS011;23457;51.966;8.230;2023-06-24T00:14:46;11.60;;;7.68;;
37609;SDS011;23457;51.966;8.230;2023-06-24T00:17:14;9.00;;;7.53;;
37609;SDS011;23457;51.966;8.230;2023-06-24T00:22:10;9.65;;;7.78;;
37609;SDS011;23457;51.966;8.230;2023-06-24T00:24:40;7.50;;;6.72;;
37609;SDS011;23457;51.966;8.230;2023-06-24T00:27:09;12.52;;;8.07;;
37609;SDS011;23457;51.966;8.230;2023-06-24T00:29:36;9.07;;;8.00;;
37609;SDS011;23457;51.966;8.230;2023-06-24T00:32:03;8.82;;;7.35;;
37609;SDS011;23457;51.966;8.230;2023-06-24T00:34:30;10.43;;;8.38;;
37609;SDS011;23457;51.966;8.230;2023-06-24T00:36:56;8.48;;;7.60;;
37609;SDS011;23457;51.966;8.230;2023-06-24T00:39:23;8.73;;;7.85;;
37609;SDS011;23457;51.966;8.230;2023-06-24T00:41:50;9.30;;;8.13;;
37609;SDS011;23457;51.966;8.230;2023-06-24T00:44:16;9.20;;;8.13;;
37609;SDS011;23457;51.966;8.230;2023-06-24T00:46:43;9.75;;;8.00;;
37609;SDS011;23457;51.966;8.230;2023-06-24T00:49:10;13.38;;;8.07;;
37609;SDS011;23457;51.966;8.230;2023-06-24T00:51:42;10.57;;;8.25;;
37609;SDS011;23457;51.966;8.230;2023-06-24T00:54:14;10.80;;;8.00;;
37609;SDS011;23457;51.966;8.230;2023-06-24T00:56:41;13.60;;;8.57;;
37609;SDS011;23457;51.966;8.230;2023-06-24T00:59:10;9.32;;;8.43;;
37609;SDS011;23457;51.966;8.230;2023-06-24T01:01:41;9.43;;;8.52;;
37609;SDS011;23457;51.966;8.230;2023-06-24T01:04:08;8.80;;;7.53;;
37609;SDS011;23457;51.966;8.230;2023-06-24T01:06:35;10.05;;;7.45;;
37609;SDS011;23457;51.966;8.230;2023-06-24T01:09:03;8.88;;;7.47;;
37609;SDS011;23457;51.966;8.230;2023-06-24T01:11:31;8.80;;;7.90;;
37609;SDS011;23457;51.966;8.230;2023-06-24T01:13:59;8.60;;;7.35;;
37609;SDS011;23457;51.966;8.230;2023-06-24T01:16:33;10.55;;;7.30;;
37609;SDS011;23457;51.966;8.230;2023-06-24T01:19:21;8.68;;;7.78;;
37609;SDS011;23457;51.966;8.230;2023-06-24T01:33:09;9.52;;;8.43;;
37609;SDS011;23457;51.966;8.230;2023-06-24T01:35:38;10.70;;;8.93;;
37609;SDS011;23457;51.966;8.230;2023-06-24T01:38:10;10.63;;;8.80;;
37609;SDS011;23457;51.966;8.230;2023-06-24T01:40:53;10.75;;;8.57;;
37609;SDS011;23457;51.966;8.230;2023-06-24T01:43:21;10.90;;;8.07;;
37609;SDS011;23457;51.966;8.230;2023-06-24T01:45:50;10.85;;;8.88;;
37609;SDS011;23457;51.966;8.230;2023-06-24T01:48:19;10.93;;;8.70;;
37609;SDS011;23457;51.966;8.230;2023-06-24T01:50:59;10.18;;;8.38;;
37609;SDS011;23457;51.966;8.230;2023-06-24T01:53:31;11.90;;;8.20;;
37609;SDS011;23457;51.966;8.230;2023-06-24T01:56:01;11.07;;;9.05;;
37609;SDS011;23457;51.966;8.230;2023-06-24T01:58:30;14.93;;;9.20;;
37609;SDS011;23457;51.966;8.230;2023-06-24T02:00:58;9.15;;;8.25;;
37609;SDS011;23457;51.966;8.230;2023-06-24T02:03:26;10.65;;;8.35;;
37609;SDS011;23457;51.966;8.230;2023-06-24T02:05:54;11.15;;;8.02;;
37609;SDS011;23457;51.966;8.230;2023-06-24T02:08:22;10.13;;;9.13;;
37609;SDS011;23457;51.966;8.230;2023-06-24T02:10:51;11.35;;;9.68;;
37609;SDS011;23457;51.966;8.230;2023-06-24T02:13:19;15.98;;;9.40;;
37609;SDS011;23457;51.966;8.230;2023-06-24T02:15:46;10.57;;;9.02;;
37609;SDS011;23457;51.966;8.230;2023-06-24T02:18:15;14.32;;;10.00;;
37609;SDS011;23457;51.966;8.230;2023-06-24T02:20:44;11.32;;;9.13;;
37609;SDS011;23457;51.966;8.230;2023-06-24T02:23:12;11.23;;;9.05;;
37609;SDS011;23457;51.966;8.230;2023-06-24T02:25:39;16.98;;;9.73;;
37609;SDS011;23457;51.966;8.230;2023-06-24T02:28:07;13.13;;;8.68;;
37609;SDS011;23457;51.966;8.230;2023-06-24T02:30:35;10.45;;;8.75;;
37609;SDS011;23457;51.966;8.230;2023-06-24T02:33:04;12.23;;;9.25;;
37609;SDS011;23457;51.966;8.230;2023-06-24T02:35:31;13.60;;;9.30;;
37609;SDS011;23457;51.966;8.230;2023-06-24T02:37:58;12.07;;;9.65;;
37609;SDS011;23457;51.966;8.230;2023-06-24T02:40:25;13.07;;;9.35;;
37609;SDS011;23457;51.966;8.230;2023-06-24T02:42:53;13.63;;;9.68;;
37609;SDS011;23457;51.966;8.230;2023-06-24T02:45:19;13.68;;;9.88;;
37609;SDS011;23457;51.966;8.230;2023-06-24T02:47:46;15.02;;;9.77;;
37609;SDS011;23457;51.966;8.230;2023-06-24T02:50:15;13.77;;;9.27;;
37609;SDS011;23457;51.966;8.230;2023-06-24T02:52:43;14.65;;;9.55;;
37609;SDS011;23457;51.966;8.230;2023-06-24T02:55:13;19.13;;;11.02;;
37609;SDS011;23457;51.966;8.230;2023-06-24T02:57:46;17.33;;;10.43;;
37609;SDS011;23457;51.966;8.230;2023-06-24T03:00:37;23.90;;;11.77;;
37609;SDS011;23457;51.966;8.230;2023-06-24T03:03:09;19.33;;;11.38;;
37609;SDS011;23457;51.966;8.230;2023-06-24T03:05:50;19.55;;;10.70;;
37609;SDS011;23457;51.966;8.230;2023-06-24T03:08:21;16.10;;;10.23;;
37609;SDS011;23457;51.966;8.230;2023-06-24T03:10:50;15.93;;;9.25;;
37609;SDS011;23457;51.966;8.230;2023-06-24T03:13:21;20.55;;;10.32;;
37609;SDS011;23457;51.966;8.230;2023-06-24T03:16:11;15.77;;;10.27;;
37609;SDS011;23457;51.966;8.230;2023-06-24T03:18:51;13.02;;;10.10;;
37609;SDS011;23457;51.966;8.230;2023-06-24T03:21:19;19.60;;;10.70;;
37609;SDS011;23457;51.966;8.230;2023-06-24T03:23:46;17.95;;;11.35;;
37609;SDS011;23457;51.966;8.230;2023-06-24T03:26:14;18.17;;;11.15;;
37609;SDS011;23457;51.966;8.230;2023-06-24T03:28:42;17.23;;;10.63;;
37609;SDS011;23457;51.966;8.230;2023-06-24T03:31:14;17.35;;;10.50;;
37609;SDS011;23457;51.966;8.230;2023-06-24T03:33:44;16.48;;;11.65;;
37609;SDS011;23457;51.966;8.230;2023-06-24T03:36:13;14.75;;;10.98;;
37609;SDS011;23457;51.966;8.230;2023-06-24T03:38:40;16.88;;;11.30;;
37609;SDS011;23457;51.966;8.230;2023-06-24T03:41:07;18.55;;;11.18;;
37609;SDS011;23457;51.966;8.230;2023-06-24T03:43:34;17.40;;;10.18;;
37609;SDS011;23457;51.966;8.230;2023-06-24T03:46:01;18.20;;;11.38;;
37609;SDS011;23457;51.966;8.230;2023-06-24T03:48:28;18.40;;;11.63;;
37609;SDS011;23457;51.966;8.230;2023-06-24T03:50:55;17.90;;;11.55;;
37609;SDS011;23457;51.966;8.230;2023-06-24T03:53:22;18.88;;;12.18;;
37609;SDS011;23457;51.966;8.230;2023-06-24T03:55:50;18.80;;;12.63;;
37609;SDS011;23457;51.966;8.230;2023-06-24T03:58:16;16.40;;;12.32;;
37609;SDS011;23457;51.966;8.230;2023-06-24T04:00:43;23.10;;;14.02;;
37609;SDS011;23457;51.966;8.230;2023-06-24T04:03:10;19.00;;;12.80;;
37609;SDS011;23457;51.966;8.230;2023-06-24T04:05:38;20.00;;;12.95;;
37609;SDS011;23457;51.966;8.230;2023-06-24T04:08:05;18.33;;;12.85;;
37609;SDS011;23457;51.966;8.230;2023-06-24T04:10:34;19.05;;;13.52;;
37609;SDS011;23457;51.966;8.230;2023-06-24T04:13:00;19.40;;;13.98;;
37609;SDS011;23457;51.966;8.230;2023-06-24T04:15:27;17.75;;;13.20;;
37609;SDS011;23457;51.966;8.230;2023-06-24T04:17:53;19.17;;;14.18;;
37609;SDS011;23457;51.966;8.230;2023-06-24T04:20:20;20.08;;;13.77;;
37609;SDS011;23457;51.966;8.230;2023-06-24T04:22:47;20.55;;;13.65;;
37609;SDS011;23457;51.966;8.230;2023-06-24T04:25:15;17.45;;;13.52;;
37609;SDS011;23457;51.966;8.230;2023-06-24T04:27:42;19.20;;;15.10;;
37609;SDS011;23457;51.966;8.230;2023-06-24T04:30:09;23.50;;;14.38;;
37609;SDS011;23457;51.966;8.230;2023-06-24T04:32:36;18.20;;;13.30;;
37609;SDS011;23457;51.966;8.230;2023-06-24T04:35:03;18.75;;;14.50;;
37609;SDS011;23457;51.966;8.230;2023-06-24T04:37:35;17.73;;;14.55;;
37609;SDS011;23457;51.966;8.230;2023-06-24T04:40:02;21.25;;;13.45;;
37609;SDS011;23457;51.966;8.230;2023-06-24T04:42:29;18.83;;;13.82;;
37609;SDS011;23457;51.966;8.230;2023-06-24T04:44:56;19.85;;;13.68;;
37609;SDS011;23457;51.966;8.230;2023-06-24T04:47:22;17.52;;;13.80;;
37609;SDS011;23457;51.966;8.230;2023-06-24T04:49:49;15.55;;;13.85;;
37609;SDS011;23457;51.966;8.230;2023-06-24T04:52:16;18.80;;;13.85;;
37609;SDS011;23457;51.966;8.230;2023-06-24T04:54:42;24.17;;;16.23;;
37609;SDS011;23457;51.966;8.230;2023-06-24T04:57:09;22.90;;;15.48;;
37609;SDS011;23457;51.966;8.230;2023-06-24T04:59:49;24.20;;;15.38;;
37609;SDS011;23457;51.966;8.230;2023-06-24T05:02:16;20.70;;;15.05;;
37609;SDS011;23457;51.966;8.230;2023-06-24T05:04:43;19.60;;;14.07;;
37609;SDS011;23457;51.966;8.230;2023-06-24T05:07:09;25.48;;;15.80;;
37609;SDS011;23457;51.966;8.230;2023-06-24T05:09:36;18.48;;;13.68;;
37609;SDS011;23457;51.966;8.230;2023-06-24T05:12:04;18.90;;;15.10;;
37609;SDS011;23457;51.966;8.230;2023-06-24T05:14:33;21.05;;;15.10;;
37609;SDS011;23457;51.966;8.230;2023-06-24T05:17:01;18.95;;;15.07;;
37609;SDS011;23457;51.966;8.230;2023-06-24T05:19:29;23.20;;;15.02;;
37609;SDS011;23457;51.966;8.230;2023-06-24T05:21:56;26.58;;;15.48;;
37609;SDS011;23457;51.966;8.230;2023-06-24T05:24:22;31.55;;;15.93;;
37609;SDS011;23457;51.966;8.230;2023-06-24T05:26:49;26.75;;;15.38;;
37609;SDS011;23457;51.966;8.230;2023-06-24T05:29:17;32.67;;;16.23;;
37609;SDS011;23457;51.966;8.230;2023-06-24T05:31:44;36.33;;;15.95;;
37609;SDS011;23457;51.966;8.230;2023-06-24T05:34:12;30.52;;;16.23;;
37609;SDS011;23457;51.966;8.230;2023-06-24T05:36:39;38.17;;;17.52;;
37609;SDS011;23457;51.966;8.230;2023-06-24T05:39:06;34.90;;;17.65;;
37609;SDS011;23457;51.966;8.230;2023-06-24T05:41:34;25.70;;;16.02;;
37609;SDS011;23457;51.966;8.230;2023-06-24T05:44:06;25.63;;;16.30;;
37609;SDS011;23457;51.966;8.230;2023-06-24T05:46:33;27.02;;;14.70;;
37609;SDS011;23457;51.966;8.230;2023-06-24T05:49:00;32.50;;;15.80;;
37609;SDS011;23457;51.966;8.230;2023-06-24T05:51:27;41.15;;;15.48;;
37609;SDS011;23457;51.966;8.230;2023-06-24T05:53:54;31.63;;;15.77;;
37609;SDS011;23457;51.966;8.230;2023-06-24T05:56:21;39.78;;;15.75;;
37609;SDS011;23457;51.966;8.230;2023-06-24T05:58:48;28.25;;;15.18;;
37609;SDS011;23457;51.966;8.230;2023-06-24T06:01:15;27.15;;;14.75;;
37609;SDS011;23457;51.966;8.230;2023-06-24T06:03:42;33.60;;;15.43;;
37609;SDS011;23457;51.966;8.230;2023-06-24T06:06:09;32.25;;;14.45;;
37609;SDS011;23457;51.966;8.230;2023-06-24T06:08:35;26.63;;;14.15;;
37609;SDS011;23457;51.966;8.230;2023-06-24T06:11:02;27.27;;;15.00;;
37609;SDS011;23457;51.966;8.230;2023-06-24T06:13:29;29.00;;;14.95;;
37609;SDS011;23457;51.966;8.230;2023-06-24T06:15:56;25.80;;;13.70;;
37609;SDS011;23457;51.966;8.230;2023-06-24T06:18:23;22.38;;;14.73;;
37609;SDS011;23457;51.966;8.230;2023-06-24T06:20:50;23.83;;;14.25;;
37609;SDS011;23457;51.966;8.230;2023-06-24T06:23:17;29.90;;;14.38;;
37609;SDS011;23457;51.966;8.230;2023-06-24T06:25:43;33.13;;;15.60;;
37609;SDS011;23457;51.966;8.230;2023-06-24T06:28:14;32.25;;;14.75;;
37609;SDS011;23457;51.966;8.230;2023-06-24T06:30:40;35.67;;;15.20;;
37609;SDS011;23457;51.966;8.230;2023-06-24T06:33:07;32.72;;;15.00;;
37609;SDS011;23457;51.966;8.230;2023-06-24T06:35:34;32.30;;;14.95;;
37609;SDS011;23457;51.966;8.230;2023-06-24T06:38:01;36.13;;;15.57;;
37609;SDS011;23457;51.966;8.230;2023-06-24T06:40:27;30.52;;;16.10;;
37609;SDS011;23457;51.966;8.230;2023-06-24T06:42:54;42.05;;;16.85;;
37609;SDS011;23457;51.966;8.230;2023-06-24T06:45:21;31.98;;;15.73;;
37609;SDS011;23457;51.966;8.230;2023-06-24T06:47:49;34.63;;;14.98;;
37609;SDS011;23457;51.966;8.230;2023-06-24T06:50:16;35.35;;;14.48;;
37609;SDS011;23457;51.966;8.230;2023-06-24T06:52:43;29.23;;;15.68;;
37609;SDS011;23457;51.966;8.230;2023-06-24T06:55:09;36.72;;;13.88;;
37609;SDS011;23457;51.966;8.230;2023-06-24T06:57:36;33.63;;;14.15;;
37609;SDS011;23457;51.966;8.230;2023-06-24T07:00:03;30.15;;;14.20;;
37609;SDS011;23457;51.966;8.230;2023-06-24T07:02:30;41.08;;;14.70;;
37609;SDS011;23457;51.966;8.230;2023-06-24T07:05:00;46.53;;;14.63;;
37609;SDS011;23457;51.966;8.230;2023-06-24T07:07:27;39.63;;;13.98;;
37609;SDS011;23457;51.966;8.230;2023-06-24T07:09:53;35.95;;;14.55;;
37609;SDS011;23457;51.966;8.230;2023-06-24T07:12:20;34.10;;;14.20;;
37609;SDS011;23457;51.966;8.230;2023-06-24T07:14:47;35.90;;;14.30;;
37609;SDS011;23457;51.966;8.230;2023-06-24T07:17:14;26.70;;;12.45;;
37609;SDS011;23457;51.966;8.230;2023-06-24T07:19:40;26.70;;;12.68;;
37609;SDS011;23457;51.966;8.230;2023-06-24T07:22:07;22.83;;;13.10;;
37609;SDS011;23457;51.966;8.230;2023-06-24T07:24:34;25.52;;;12.25;;
37609;SDS011;23457;51.966;8.230;2023-06-24T07:27:00;15.88;;;11.32;;
37609;SDS011;23457;51.966;8.230;2023-06-24T07:29:27;19.50;;;12.30;;
37609;SDS011;23457;51.966;8.230;2023-06-24T07:31:54;18.25;;;12.07;;
37609;SDS011;23457;51.966;8.230;2023-06-24T07:34:21;19.88;;;12.05;;
37609;SDS011;23457;51.966;8.230;2023-06-24T07:36:47;18.38;;;11.02;;
37609;SDS011;23457;51.966;8.230;2023-06-24T07:39:14;14.43;;;10.63;;
37609;SDS011;23457;51.966;8.230;2023-06-24T07:41:41;44.17;;;14.18;;
37609;SDS011;23457;51.966;8.230;2023-06-24T07:44:08;12.82;;;11.27;;
37609;SDS011;23457;51.966;8.230;2023-06-24T07:46:35;12.77;;;10.93;;
37609;SDS011;23457;51.966;8.230;2023-06-24T07:49:02;16.88;;;11.98;;
37609;SDS011;23457;51.966;8.230;2023-06-24T07:51:28;25.40;;;12.57;;
37609;SDS011;23457;51.966;8.230;2023-06-24T07:53:55;15.20;;;12.23;;
37609;SDS011;23457;51.966;8.230;2023-06-24T07:56:21;17.60;;;11.57;;
37609;SDS011;23457;51.966;8.230;2023-06-24T07:58:48;17.35;;;10.80;;
37609;SDS011;23457;51.966;8.230;2023-06-24T08:01:15;15.00;;;10.45;;
37609;SDS011;23457;51.966;8.230;2023-06-24T08:03:41;14.13;;;10.48;;
37609;SDS011;23457;51.966;8.230;2023-06-24T08:06:08;15.88;;;9.75;;
37609;SDS011;23457;51.966;8.230;2023-06-24T08:08:35;13.23;;;10.18;;
37609;SDS011;23457;51.966;8.230;2023-06-24T08:11:02;11.60;;;9.40;;
37609;SDS011;23457;51.966;8.230;2023-06-24T08:13:29;10.65;;;9.55;;
37609;SDS011;23457;51.966;8.230;2023-06-24T08:15:56;14.48;;;10.35;;
37609;SDS011;23457;51.966;8.230;2023-06-24T08:18:23;15.93;;;9.93;;
37609;SDS011;23457;51.966;8.230;2023-06-24T08:20:50;13.70;;;10.18;;
37609;SDS011;23457;51.966;8.230;2023-06-24T08:23:17;13.68;;;10.10;;
37609;SDS011;23457;51.966;8.230;2023-06-24T08:29:07;14.25;;;10.70;;
37609;SDS011;23457;51.966;8.230;2023-06-24T08:32:11;16.00;;;10.70;;
37609;SDS011;23457;51.966;8.230;2023-06-24T08:34:38;16.38;;;11.65;;
37609;SDS011;23457;51.966;8.230;2023-06-24T08:37:05;14.68;;;10.38;;
37609;SDS011;23457;51.966;8.230;2023-06-24T08:39:31;13.48;;;10.40;;
37609;SDS011;23457;51.966;8.230;2023-06-24T08:41:58;14.82;;;10.63;;
37609;SDS011;23457;51.966;8.230;2023-06-24T08:44:25;14.18;;;12.07;;
37609;SDS011;23457;51.966;8.230;2023-06-24T08:46:52;14.13;;;11.07;;
37609;SDS011;23457;51.966;8.230;2023-06-24T08:54:26;13.77;;;10.75;;
37609;SDS011;23457;51.966;8.230;2023-06-24T08:56:53;11.77;;;9.73;;
37609;SDS011;23457;51.966;8.230;2023-06-24T08:59:19;13.00;;;9.93;;
37609;SDS011;23457;51.966;8.230;2023-06-24T09:01:46;13.88;;;10.95;;
37609;SDS011;23457;51.966;8.230;2023-06-24T09:04:13;13.25;;;9.90;;
37609;SDS011;23457;51.966;8.230;2023-06-24T09:06:40;13.05;;;9.50;;
37609;SDS011;23457;51.966;8.230;2023-06-24T09:09:19;10.50;;;8.95;;
37609;SDS011;23457;51.966;8.230;2023-06-24T09:11:53;10.32;;;7.72;;
37609;SDS011;23457;51.966;8.230;2023-06-24T09:14:25;11.13;;;8.73;;
37609;SDS011;23457;51.966;8.230;2023-06-24T09:16:56;13.00;;;7.82;;
37609;SDS011;23457;51.966;8.230;2023-06-24T09:19:25;12.77;;;8.70;;
37609;SDS011;23457;51.966;8.230;2023-06-24T09:21:56;13.15;;;8.45;;
37609;SDS011;23457;51.966;8.230;2023-06-24T09:24:27;11.02;;;8.05;;
37609;SDS011;23457;51.966;8.230;2023-06-24T09:29:26;9.93;;;6.60;;
37609;SDS011;23457;51.966;8.230;2023-06-24T09:31:55;9.88;;;7.22;;
37609;SDS011;23457;51.966;8.230;2023-06-24T09:34:24;10.90;;;8.18;;
37609;SDS011;23457;51.966;8.230;2023-06-24T09:36:55;11.85;;;9.38;;
37609;SDS011;23457;51.966;8.230;2023-06-24T09:41:56;12.68;;;8.88;;
37609;SDS011;23457;51.966;8.230;2023-06-24T09:44:24;45.58;;;12.32;;
37609;SDS011;23457;51.966;8.230;2023-06-24T09:46:52;15.65;;;8.57;;
37609;SDS011;23457;51.966;8.230;2023-06-24T09:49:18;9.73;;;8.18;;
37609;SDS011;23457;51.966;8.230;2023-06-24T09:51:46;11.57;;;7.65;;
37609;SDS011;23457;51.966;8.230;2023-06-24T09:54:14;12.55;;;7.95;;
37609;SDS011;23457;51.966;8.230;2023-06-24T09:56:49;8.75;;;7.13;;
37609;SDS011;23457;51.966;8.230;2023-06-24T09:59:17;11.05;;;6.50;;
37609;SDS011;23457;51.966;8.230;2023-06-24T10:01:49;12.10;;;6.55;;
37609;SDS011;23457;51.966;8.230;2023-06-24T10:04:18;11.30;;;6.43;;
37609;SDS011;23457;51.966;8.230;2023-06-24T10:06:46;9.00;;;6.35;;
37609;SDS011;23457;51.966;8.230;2023-06-24T10:09:13;10.20;;;7.32;;
37609;SDS011;23457;51.966;8.230;2023-06-24T10:11:44;11.82;;;6.63;;
37609;SDS011;23457;51.966;8.230;2023-06-24T10:14:12;10.00;;;7.53;;
37609;SDS011;23457;51.966;8.230;2023-06-24T10:16:38;7.78;;;5.78;;
37609;SDS011;23457;51.966;8.230;2023-06-24T10:19:06;9.32;;;7.20;;
37609;SDS011;23457;51.966;8.230;2023-06-24T10:21:52;9.43;;;6.38;;
37609;SDS011;23457;51.966;8.230;2023-06-24T10:24:29;9.75;;;6.93;;
37609;SDS011;23457;51.966;8.230;2023-06-24T10:27:04;13.05;;;8.38;;
37609;SDS011;23457;51.966;8.230;2023-06-24T10:29:33;13.27;;;6.78;;
37609;SDS011;23457;51.966;8.230;2023-06-24T10:32:02;11.50;;;7.38;;
37609;SDS011;23457;51.966;8.230;2023-06-24T10:42:51;11.63;;;8.15;;
37609;SDS011;23457;51.966;8.230;2023-06-24T10:50:05;11.30;;;7.03;;
37609;SDS011;23457;51.966;8.230;2023-06-24T10:52:37;11.68;;;6.40;;
37609;SDS011;23457;51.966;8.230;2023-06-24T10:55:07;12.23;;;6.57;;
37609;SDS011;23457;51.966;8.230;2023-06-24T10:57:34;10.70;;;6.20;;
37609;SDS011;23457;51.966;8.230;2023-06-24T11:00:02;9.80;;;6.85;;
37609;SDS011;23457;51.966;8.230;2023-06-24T11:02:29;9.48;;;6.82;;
37609;SDS011;23457;51.966;8.230;2023-06-24T11:04:57;8.00;;;6.65;;
37609;SDS011;23457;51.966;8.230;2023-06-24T11:07:27;6.80;;;5.95;;
37609;SDS011;23457;51.966;8.230;2023-06-24T11:10:00;8.75;;;7.32;;
37609;SDS011;23457;51.966;8.230;2023-06-24T11:12:35;9.88;;;6.05;;
37609;SDS011;23457;51.966;8.230;2023-06-24T11:15:03;11.90;;;6.55;;
37609;SDS011;23457;51.966;8.230;2023-06-24T11:17:32;10.10;;;7.65;;
37609;SDS011;23457;51.966;8.230;2023-06-24T11:20:00;7.63;;;6.78;;
37609;SDS011;23457;51.966;8.230;2023-06-24T11:22:28;10.63;;;7.35;;
37609;SDS011;23457;51.966;8.230;2023-06-24T11:24:55;8.40;;;5.88;;
37609;SDS011;23457;51.966;8.230;2023-06-24T11:27:26;8.43;;;7.20;;
37609;SDS011;23457;51.966;8.230;2023-06-24T11:29:54;9.77;;;7.47;;
37609;SDS011;23457;51.966;8.230;2023-06-24T11:32:24;9.70;;;7.22;;
37609;SDS011;23457;51.966;8.230;2023-06-24T11:34:51;11.50;;;7.00;;
37609;SDS011;23457;51.966;8.230;2023-06-24T11:37:18;12.38;;;7.35;;
37609;SDS011;23457;51.966;8.230;2023-06-24T11:39:45;10.25;;;7.47;;
37609;SDS011;23457;51.966;8.230;2023-06-24T11:42:31;11.75;;;7.28;;
37609;SDS011;23457;51.966;8.230;2023-06-24T11:45:00;8.82;;;7.72;;
37609;SDS011;23457;51.966;8.230;2023-06-24T11:47:34;11.93;;;7.05;;
37609;SDS011;23457;51.966;8.230;2023-06-24T11:50:02;8.40;;;7.45;;
37609;SDS011;23457;51.966;8.230;2023-06-24T11:52:44;12.10;;;7.57;;
37609;SDS011;23457;51.966;8.230;2023-06-24T11:55:13;7.75;;;6.95;;
37609;SDS011;23457;51.966;8.230;2023-06-24T12:00:29;9.82;;;7.60;;
37609;SDS011;23457;51.966;8.230;2023-06-24T12:02:58;10.00;;;7.40;;
37609;SDS011;23457;51.966;8.230;2023-06-24T12:05:28;8.13;;;6.80;;
37609;SDS011;23457;51.966;8.230;2023-06-24T12:08:00;10.73;;;7.25;;
37609;SDS011;23457;51.966;8.230;2023-06-24T12:10:27;51.42;;;10.88;;
37609;SDS011;23457;51.966;8.230;2023-06-24T12:12:58;8.43;;;5.70;;
37609;SDS011;23457;51.966;8.230;2023-06-24T12:15:25;28.95;;;6.88;;
37609;SDS011;23457;51.966;8.230;2023-06-24T12:17:53;23.27;;;7.00;;
37609;SDS011;23457;51.966;8.230;2023-06-24T12:20:20;9.50;;;6.70;;
37609;SDS011;23457;51.966;8.230;2023-06-24T12:22:47;9.52;;;6.22;;
37609;SDS011;23457;51.966;8.230;2023-06-24T12:25:15;11.70;;;7.20;;
37609;SDS011;23457;51.966;8.230;2023-06-24T12:27:43;9.63;;;7.43;;
37609;SDS011;23457;51.966;8.230;2023-06-24T12:30:10;9.50;;;6.47;;
37609;SDS011;23457;51.966;8.230;2023-06-24T12:32:38;10.75;;;6.97;;
37609;SDS011;23457;51.966;8.230;2023-06-24T12:35:05;7.70;;;6.88;;
37609;SDS011;23457;51.966;8.230;2023-06-24T12:37:35;8.70;;;6.50;;
37609;SDS011;23457;51.966;8.230;2023-06-24T12:40:04;7.20;;;6.20;;
37609;SDS011;23457;51.966;8.230;2023-06-24T12:42:32;11.38;;;6.03;;
37609;SDS011;23457;51.966;8.230;2023-06-24T12:44:58;8.68;;;6.03;;
37609;SDS011;23457;51.966;8.230;2023-06-24T12:47:25;7.47;;;5.70;;
37609;SDS011;23457;51.966;8.230;2023-06-24T12:49:52;21.45;;;7.03;;
37609;SDS011;23457;51.966;8.230;2023-06-24T12:52:19;8.43;;;6.00;;
37609;SDS011;23457;51.966;8.230;2023-06-24T12:54:46;11.45;;;6.53;;
37609;SDS011;23457;51.966;8.230;2023-06-24T12:57:12;9.63;;;7.10;;
37609;SDS011;23457;51.966;8.230;2023-06-24T12:59:40;8.82;;;5.90;;
37609;SDS011;23457;51.966;8.230;2023-06-24T13:02:07;16.33;;;7.13;;
37609;SDS011;23457;51.966;8.230;2023-06-24T13:04:34;7.95;;;5.70;;
37609;SDS011;23457;51.966;8.230;2023-06-24T13:07:00;7.93;;;6.40;;
37609;SDS011;23457;51.966;8.230;2023-06-24T13:09:27;23.13;;;7.15;;
37609;SDS011;23457;51.966;8.230;2023-06-24T13:11:54;9.48;;;6.07;;
37609;SDS011;23457;51.966;8.230;2023-06-24T13:14:20;23.63;;;7.60;;
37609;SDS011;23457;51.966;8.230;2023-06-24T13:16:47;10.23;;;5.80;;
37609;SDS011;23457;51.966;8.230;2023-06-24T13:19:14;7.07;;;5.30;;
37609;SDS011;23457;51.966;8.230;2023-06-24T13:21:42;10.07;;;5.70;;
37609;SDS011;23457;51.966;8.230;2023-06-24T13:24:08;8.20;;;6.30;;
37609;SDS011;23457;51.966;8.230;2023-06-24T13:26:35;44.58;;;9.70;;
37609;SDS011;23457;51.966;8.230;2023-06-24T13:29:02;11.00;;;6.65;;
37609;SDS011;23457;51.966;8.230;2023-06-24T13:31:29;18.63;;;6.65;;
37609;SDS011;23457;51.966;8.230;2023-06-24T13:33:56;14.55;;;6.35;;
37609;SDS011;23457;51.966;8.230;2023-06-24T13:36:32;10.35;;;5.75;;
37609;SDS011;23457;51.966;8.230;2023-06-24T13:39:04;6.97;;;5.25;;
37609;SDS011;23457;51.966;8.230;2023-06-24T13:41:33;7.35;;;6.20;;
37609;SDS011;23457;51.966;8.230;2023-06-24T13:44:00;8.95;;;6.25;;
37609;SDS011;23457;51.966;8.230;2023-06-24T13:48:56;8.88;;;6.97;;
37609;SDS011;23457;51.966;8.230;2023-06-24T13:51:24;7.72;;;6.15;;
37609;SDS011;23457;51.966;8.230;2023-06-24T13:53:52;10.75;;;6.43;;
37609;SDS011;23457;51.966;8.230;2023-06-24T13:56:19;9.23;;;6.00;;
37609;SDS011;23457;51.966;8.230;2023-06-24T13:58:47;9.90;;;6.50;;
37609;SDS011;23457;51.966;8.230;2023-06-24T14:01:14;8.77;;;6.40;;
37609;SDS011;23457;51.966;8.230;2023-06-24T14:03:42;6.65;;;5.75;;
37609;SDS011;23457;51.966;8.230;2023-06-24T14:06:09;6.28;;;5.68;;
37609;SDS011;23457;51.966;8.230;2023-06-24T14:08:36;9.20;;;6.80;;
37609;SDS011;23457;51.966;8.230;2023-06-24T14:11:03;7.53;;;6.22;;
37609;SDS011;23457;51.966;8.230;2023-06-24T14:13:30;7.30;;;6.50;;
37609;SDS011;23457;51.966;8.230;2023-06-24T14:15:57;8.65;;;6.28;;
37609;SDS011;23457;51.966;8.230;2023-06-24T14:18:24;9.98;;;6.00;;
37609;SDS011;23457;51.966;8.230;2023-06-24T14:20:51;8.52;;;5.90;;
37609;SDS011;23457;51.966;8.230;2023-06-24T14:23:18;9.02;;;5.80;;
37609;SDS011;23457;51.966;8.230;2023-06-24T14:25:45;11.35;;;6.07;;
37609;SDS011;23457;51.966;8.230;2023-06-24T14:28:11;11.75;;;6.93;;
37609;SDS011;23457;51.966;8.230;2023-06-24T14:30:38;8.18;;;5.85;;
37609;SDS011;23457;51.966;8.230;2023-06-24T14:33:05;6.07;;;5.50;;
37609;SDS011;23457;51.966;8.230;2023-06-24T14:35:31;9.07;;;6.00;;
37609;SDS011;23457;51.966;8.230;2023-06-24T14:37:58;8.52;;;5.75;;
37609;SDS011;23457;51.966;8.230;2023-06-24T14:40:25;8.43;;;5.72;;
37609;SDS011;23457;51.966;8.230;2023-06-24T14:42:51;6.55;;;5.80;;
37609;SDS011;23457;51.966;8.230;2023-06-24T14:45:18;6.40;;;5.72;;
37609;SDS011;23457;51.966;8.230;2023-06-24T14:47:45;10.35;;;5.68;;
37609;SDS011;23457;51.966;8.230;2023-06-24T14:50:11;8.30;;;5.93;;
37609;SDS011;23457;51.966;8.230;2023-06-24T14:52:39;9.32;;;5.53;;
37609;SDS011;23457;51.966;8.230;2023-06-24T14:55:06;7.43;;;5.78;;
37609;SDS011;23457;51.966;8.230;2023-06-24T14:57:33;7.93;;;5.55;;
37609;SDS011;23457;51.966;8.230;2023-06-24T14:59:59;7.63;;;5.07;;
37609;SDS011;23457;51.966;8.230;2023-06-24T15:02:26;7.75;;;5.72;;
37609;SDS011;23457;51.966;8.230;2023-06-24T15:04:53;6.25;;;5.50;;
37609;SDS011;23457;51.966;8.230;2023-06-24T15:07:20;6.10;;;5.50;;
37609;SDS011;23457;51.966;8.230;2023-06-24T15:09:46;6.53;;;5.20;;
37609;SDS011;23457;51.966;8.230;2023-06-24T15:12:13;6.95;;;5.35;;
37609;SDS011;23457;51.966;8.230;2023-06-24T15:14:40;6.10;;;4.88;;
37609;SDS011;23457;51.966;8.230;2023-06-24T15:17:06;7.65;;;5.20;;
37609;SDS011;23457;51.966;8.230;2023-06-24T15:19:33;6.90;;;5.30;;
37609;SDS011;23457;51.966;8.230;2023-06-24T15:22:00;6.95;;;5.05;;
37609;SDS011;23457;51.966;8.230;2023-06-24T15:24:26;6.40;;;5.13;;
37609;SDS011;23457;51.966;8.230;2023-06-24T15:26:53;7.32;;;5.18;;